Atlantic Beach, Florida
Current Conditions -  °F | °C
As of 6:52 AM on Friday 19 Dec 2014 (Local Time) from KNRB Reporting Station
Broken Clouds Broken Clouds  
Wind Chill: 51°   Ceiling: 21000
Heat Index: 51°   Visibility: 10mi
Dew Point: 43°   Wind: 3mph
Humidity: 74%   Direction: NA
Pressure: 30.12"   Gusts: NA
Location:  30.33°N, 81.4°W
Report Text: KNRB 191152Z VRB03KT 10SM BKN210 11/06 A3012 RMK AO2 SLP198 T01060061 10117 20100 53007 $
Loading
Personal Weather Stations






























Interactive Weather Map New forecast layout! Learn more

10-Day Weather Forecast

Advertisements
Track Severe Weather on mobile